createdAt,value
2019-02-19T00:00:08.541Z,10.84
2019-02-19T00:01:08.533Z,10.83
2019-02-19T00:02:08.530Z,10.87
2019-02-19T00:03:08.518Z,10.83
2019-02-19T00:04:08.504Z,10.81
2019-02-19T00:05:08.496Z,10.80
2019-02-19T00:06:08.508Z,10.81
2019-02-19T00:07:08.476Z,10.75
2019-02-19T00:08:08.473Z,10.80
2019-02-19T00:09:08.463Z,10.76
2019-02-19T00:10:08.450Z,10.83
2019-02-19T00:11:08.443Z,10.86
2019-02-19T00:12:08.443Z,10.86
2019-02-19T00:13:08.431Z,10.84
2019-02-19T00:14:08.425Z,10.83
2019-02-19T00:15:08.745Z,10.75
2019-02-19T00:16:08.403Z,10.81
2019-02-19T00:17:08.396Z,10.80
2019-02-19T00:18:08.384Z,10.76
2019-02-19T00:19:08.378Z,10.80
2019-02-19T00:20:08.381Z,10.84
2019-02-19T00:21:08.364Z,10.65
2019-02-19T00:22:08.359Z,10.69
2019-02-19T00:23:08.350Z,10.78
2019-02-19T00:24:08.339Z,10.68
2019-02-19T00:25:08.329Z,10.66
2019-02-19T00:26:08.325Z,10.68
2019-02-19T00:27:08.320Z,10.76
2019-02-19T00:28:08.304Z,10.68
2019-02-19T00:29:08.297Z,10.65
2019-02-19T00:30:08.285Z,10.68
2019-02-19T00:31:08.278Z,10.68
2019-02-19T00:32:08.275Z,10.68
2019-02-19T00:33:08.266Z,10.58
2019-02-19T00:34:08.256Z,10.58
2019-02-19T00:35:08.248Z,10.62
2019-02-19T00:36:08.235Z,10.65
2019-02-19T00:37:08.227Z,10.58
2019-02-19T00:38:08.220Z,10.58
2019-02-19T00:39:08.213Z,10.60
2019-02-19T00:40:08.210Z,10.52
2019-02-19T00:41:08.200Z,10.57
2019-02-19T00:42:08.188Z,10.47
2019-02-19T00:43:08.180Z,10.49
2019-02-19T00:44:08.177Z,10.46
2019-02-19T00:45:16.281Z,10.49
2019-02-19T00:46:08.157Z,10.49
2019-02-19T00:47:08.151Z,10.55
2019-02-19T00:48:08.135Z,10.44
2019-02-19T00:49:08.128Z,10.57
2019-02-19T00:50:08.123Z,10.42
2019-02-19T00:51:08.110Z,10.49
2019-02-19T00:52:08.109Z,10.49
2019-02-19T00:53:08.100Z,10.44
2019-02-19T00:54:08.094Z,10.49
2019-02-19T00:55:08.085Z,10.38
2019-02-19T00:56:08.115Z,10.46
2019-02-19T00:57:08.065Z,10.54
2019-02-19T00:58:08.063Z,10.38
2019-02-19T00:59:08.052Z,10.42
2019-02-19T01:00:08.040Z,10.42
2019-02-19T01:01:08.032Z,10.36
2019-02-19T01:02:08.019Z,10.35
2019-02-19T01:03:08.013Z,10.47
2019-02-19T01:04:08.009Z,10.34
2019-02-19T01:05:08.000Z,10.34
2019-02-19T01:06:07.992Z,10.43
2019-02-19T01:07:07.984Z,10.39
2019-02-19T01:08:07.971Z,10.39
2019-02-19T01:09:07.961Z,10.39
2019-02-19T01:10:07.957Z,10.42
2019-02-19T01:11:07.949Z,10.39
2019-02-19T01:12:07.946Z,10.35
2019-02-19T01:13:07.941Z,10.24
2019-02-19T01:14:07.923Z,10.35
2019-02-19T01:15:07.915Z,10.25
2019-02-19T01:16:07.914Z,10.26
2019-02-19T01:17:07.903Z,10.18
2019-02-19T01:18:07.894Z,10.25
2019-02-19T01:19:07.884Z,10.26
2019-02-19T01:20:07.913Z,10.20
2019-02-19T01:21:07.861Z,10.26
2019-02-19T01:22:07.858Z,10.16
2019-02-19T01:23:07.851Z,10.24
2019-02-19T01:24:07.846Z,10.17
2019-02-19T01:25:07.836Z,10.20
2019-02-19T01:26:07.825Z,10.20
2019-02-19T01:27:07.819Z,10.22
2019-02-19T01:28:07.807Z,10.22
2019-02-19T01:29:07.797Z,10.18
2019-02-19T01:30:07.792Z,10.22
2019-02-19T01:31:07.784Z,10.20
2019-02-19T01:32:07.770Z,10.13
2019-02-19T01:33:07.769Z,10.17
2019-02-19T01:34:07.757Z,10.24
2019-02-19T01:35:07.750Z,10.13
2019-02-19T01:36:07.745Z,10.24
2019-02-19T01:37:07.736Z,10.13
2019-02-19T01:38:07.728Z,10.14
2019-02-19T01:39:07.720Z,10.13
2019-02-19T01:40:07.707Z,10.13
2019-02-19T01:41:07.701Z,10.09
2019-02-19T01:42:07.688Z,10.07
2019-02-19T01:43:07.677Z,10.06
2019-02-19T01:44:07.675Z,10.04
2019-02-19T01:45:07.666Z,9.98
2019-02-19T01:46:07.652Z,10.11
2019-02-19T01:47:07.644Z,9.98
2019-02-19T01:48:07.641Z,9.98
2019-02-19T01:49:07.632Z,9.98
2019-02-19T01:50:07.627Z,9.99
2019-02-19T01:51:07.617Z,9.98
2019-02-19T01:52:07.606Z,10.06
2019-02-19T01:53:07.615Z,10.10
2019-02-19T01:54:07.590Z,10.13
2019-02-19T01:55:07.582Z,10.09
2019-02-19T01:56:07.576Z,10.13
2019-02-19T01:57:07.567Z,10.09
2019-02-19T01:58:07.559Z,10.22
2019-02-19T01:59:07.547Z,10.24
2019-02-19T02:00:07.540Z,10.17
2019-02-19T02:01:07.529Z,10.25
2019-02-19T02:02:07.523Z,10.22
2019-02-19T02:03:07.516Z,10.26
2019-02-19T02:04:07.503Z,10.24
2019-02-19T02:05:07.495Z,10.26
2019-02-19T02:06:07.489Z,10.34
2019-02-19T02:07:07.480Z,10.35
2019-02-19T02:08:07.478Z,10.39
2019-02-19T02:09:07.467Z,10.42
2019-02-19T02:10:07.459Z,10.46
2019-02-19T02:11:07.454Z,10.38
2019-02-19T02:12:07.439Z,10.42
2019-02-19T02:13:07.430Z,10.54
2019-02-19T02:14:07.419Z,10.44
2019-02-19T02:15:07.412Z,10.46
2019-02-19T02:16:07.409Z,10.44
2019-02-19T02:17:07.399Z,10.51
2019-02-19T02:18:07.389Z,10.46
2019-02-19T02:19:07.382Z,10.44
2019-02-19T02:20:07.378Z,10.60
2019-02-19T02:21:07.368Z,10.55
2019-02-19T02:22:07.363Z,10.58
2019-02-19T02:23:07.355Z,10.54
2019-02-19T02:24:07.342Z,10.51
2019-02-19T02:25:07.334Z,10.58
2019-02-19T02:26:07.330Z,10.49
2019-02-19T02:27:07.313Z,10.57
2019-02-19T02:28:07.312Z,10.57
2019-02-19T02:29:07.303Z,10.63
2019-02-19T02:30:07.301Z,10.62
2019-02-19T02:31:07.293Z,10.69
2019-02-19T02:32:07.276Z,10.62
2019-02-19T02:33:07.278Z,10.69
2019-02-19T02:34:07.270Z,10.62
2019-02-19T02:35:07.256Z,10.70
2019-02-19T02:36:07.254Z,10.66
2019-02-19T02:37:07.241Z,10.70
2019-02-19T02:38:07.226Z,10.73
2019-02-19T02:39:07.217Z,10.84
2019-02-19T02:40:07.255Z,10.70
2019-02-19T02:41:07.213Z,10.78
2019-02-19T02:42:07.200Z,10.80
2019-02-19T02:43:07.192Z,10.90
2019-02-19T02:44:07.180Z,10.88
2019-02-19T02:45:07.170Z,10.90
2019-02-19T02:46:07.170Z,10.88
2019-02-19T02:47:07.157Z,10.86
2019-02-19T02:48:07.156Z,10.90
2019-02-19T02:49:07.146Z,10.87
2019-02-19T02:50:07.133Z,10.91
2019-02-19T02:51:07.127Z,10.88
2019-02-19T02:52:07.134Z,10.86
2019-02-19T02:53:07.115Z,10.84
2019-02-19T02:54:07.105Z,10.87
2019-02-19T02:55:07.100Z,10.87
2019-02-19T02:56:07.086Z,10.86
2019-02-19T02:57:07.075Z,10.86
2019-02-19T02:58:07.067Z,10.83
2019-02-19T02:59:07.062Z,10.83
2019-02-19T03:00:07.058Z,10.84
2019-02-19T03:01:07.052Z,10.86
2019-02-19T03:02:07.045Z,10.84
2019-02-19T03:03:07.036Z,10.90
2019-02-19T03:04:07.025Z,10.86
2019-02-19T03:05:07.020Z,10.83
2019-02-19T03:06:07.024Z,10.88
2019-02-19T03:07:07.011Z,10.83
2019-02-19T03:08:06.994Z,10.87
2019-02-19T03:09:06.989Z,10.93
2019-02-19T03:10:06.976Z,10.90
2019-02-19T03:11:06.973Z,10.83
2019-02-19T03:12:06.966Z,10.81
2019-02-19T03:13:06.959Z,10.80
2019-02-19T03:14:06.950Z,10.84
2019-02-19T03:15:06.942Z,10.81
2019-02-19T03:16:06.931Z,10.76
2019-02-19T03:17:06.922Z,10.86
2019-02-19T03:18:06.917Z,10.66
2019-02-19T03:19:06.910Z,10.81
2019-02-19T03:20:06.927Z,10.78
2019-02-19T03:21:06.899Z,10.80
2019-02-19T03:22:06.886Z,10.73
2019-02-19T03:23:06.877Z,10.72
2019-02-19T03:24:06.876Z,10.80
2019-02-19T03:25:06.868Z,10.75
2019-02-19T03:26:06.857Z,10.75
2019-02-19T03:27:06.850Z,10.80
2019-02-19T03:28:06.837Z,10.87
2019-02-19T03:29:06.830Z,10.86
2019-02-19T03:30:06.821Z,10.83
2019-02-19T03:31:06.813Z,10.78
2019-02-19T03:32:06.813Z,10.81
2019-02-19T03:33:06.808Z,10.80
2019-02-19T03:34:06.796Z,10.80
2019-02-19T03:35:06.791Z,10.66
2019-02-19T03:36:06.776Z,10.72
2019-02-19T03:37:06.768Z,10.57
2019-02-19T03:38:06.774Z,10.62
2019-02-19T03:39:06.756Z,10.62
2019-02-19T03:40:07.634Z,10.54
2019-02-19T03:41:06.738Z,10.62
2019-02-19T03:42:06.725Z,10.66
2019-02-19T03:43:06.719Z,10.51
2019-02-19T03:44:06.714Z,10.66
2019-02-19T03:45:06.708Z,10.51
2019-02-19T03:46:12.051Z,10.55
2019-02-19T03:47:06.693Z,10.55
2019-02-19T03:48:06.679Z,10.52
2019-02-19T03:49:06.670Z,10.54
2019-02-19T03:50:06.666Z,10.52
2019-02-19T03:51:06.658Z,10.60
2019-02-19T03:52:06.656Z,10.62
2019-02-19T03:53:06.646Z,10.55
2019-02-19T03:54:06.633Z,10.54
2019-02-19T03:55:06.666Z,10.46
2019-02-19T03:56:06.623Z,10.49
2019-02-19T03:57:06.615Z,10.49
2019-02-19T03:58:06.607Z,10.46
2019-02-19T03:59:06.601Z,10.51
2019-02-19T04:00:06.586Z,10.32
2019-02-19T04:01:06.578Z,10.42
2019-02-19T04:02:06.571Z,10.35
2019-02-19T04:03:06.561Z,10.34
2019-02-19T04:04:06.558Z,10.39
2019-02-19T04:05:06.550Z,10.34
2019-02-19T04:06:06.544Z,10.43
2019-02-19T04:07:06.535Z,10.34
2019-02-19T04:08:06.525Z,10.42
2019-02-19T04:09:06.515Z,10.54
2019-02-19T04:10:06.510Z,10.43
2019-02-19T04:11:06.509Z,10.35
2019-02-19T04:12:06.492Z,10.43
2019-02-19T04:13:06.484Z,10.39
2019-02-19T04:14:06.472Z,10.47
2019-02-19T04:15:06.463Z,10.36
2019-02-19T04:16:06.462Z,10.44
2019-02-19T04:17:06.452Z,10.44
2019-02-19T04:18:06.444Z,10.43
2019-02-19T04:19:06.438Z,10.42
2019-02-19T04:20:06.426Z,10.31
2019-02-19T04:21:06.416Z,10.38
2019-02-19T04:22:06.416Z,10.39
2019-02-19T04:23:06.404Z,10.34
2019-02-19T04:24:06.400Z,10.32
2019-02-19T04:25:06.392Z,10.39
2019-02-19T04:26:06.379Z,10.34
2019-02-19T04:27:06.371Z,10.38
2019-02-19T04:28:06.366Z,10.29
2019-02-19T04:29:06.358Z,10.22
2019-02-19T04:30:06.349Z,10.20
2019-02-19T04:31:06.342Z,10.24
2019-02-19T04:32:06.327Z,10.24
2019-02-19T04:33:06.319Z,10.18
2019-02-19T04:34:06.315Z,10.16
2019-02-19T04:35:06.306Z,10.24
2019-02-19T04:36:06.302Z,10.14
2019-02-19T04:37:06.295Z,10.09
2019-02-19T04:38:06.284Z,10.10
2019-02-19T04:39:06.275Z,10.06
2019-02-19T04:40:06.263Z,10.06
2019-02-19T04:41:06.253Z,10.07
2019-02-19T04:42:06.255Z,10.06
2019-02-19T04:43:06.243Z,10.09
2019-02-19T04:44:06.231Z,10.16
2019-02-19T04:45:06.225Z,10.14
2019-02-19T04:46:06.216Z,10.10
2019-02-19T04:47:06.209Z,10.13
2019-02-19T04:48:06.207Z,10.13
2019-02-19T04:49:06.197Z,10.13
2019-02-19T04:50:06.188Z,9.99
2019-02-19T04:51:06.181Z,9.95
2019-02-19T04:52:06.170Z,9.91
2019-02-19T04:53:06.160Z,9.92
2019-02-19T04:54:06.175Z,9.89
2019-02-19T04:55:06.141Z,9.92
2019-02-19T04:56:06.141Z,9.78
2019-02-19T04:57:06.152Z,9.78
2019-02-19T04:58:06.117Z,9.77
2019-02-19T04:59:06.110Z,9.78
2019-02-19T05:00:06.103Z,9.75
2019-02-19T05:01:06.098Z,9.78
2019-02-19T05:02:06.090Z,9.78
2019-02-19T05:03:06.081Z,9.77
2019-02-19T05:04:06.072Z,9.75
2019-02-19T05:05:06.074Z,9.77
2019-02-19T05:06:06.053Z,9.74
2019-02-19T05:07:06.048Z,9.77
2019-02-19T05:08:06.042Z,9.81
2019-02-19T05:09:06.032Z,9.89
2019-02-19T05:10:06.029Z,9.93
2019-02-19T05:11:06.015Z,9.95
2019-02-19T05:12:06.010Z,9.86
2019-02-19T05:13:05.992Z,9.89
2019-02-19T05:14:05.988Z,9.91
2019-02-19T05:15:05.982Z,9.91
2019-02-19T05:16:05.967Z,9.92
2019-02-19T05:17:05.959Z,9.89
2019-02-19T05:18:05.955Z,9.85
2019-02-19T05:19:05.946Z,9.92
2019-02-19T05:20:05.951Z,9.89
2019-02-19T05:21:05.933Z,9.81
2019-02-19T05:22:05.926Z,9.83
2019-02-19T05:23:07.500Z,9.92
2019-02-19T05:24:05.906Z,9.89
2019-02-19T05:25:05.895Z,9.86
2019-02-19T05:26:05.889Z,9.92
2019-02-19T05:27:05.879Z,9.93
2019-02-19T05:28:05.873Z,9.92
2019-02-19T05:29:05.866Z,9.83
2019-02-19T05:30:05.851Z,9.92
2019-02-19T05:31:05.844Z,9.91
2019-02-19T05:32:05.841Z,9.88
2019-02-19T05:33:05.831Z,9.89
2019-02-19T05:34:05.825Z,9.85
2019-02-19T05:35:05.821Z,9.88
2019-02-19T05:36:05.808Z,9.92
2019-02-19T05:37:05.807Z,9.85
2019-02-19T05:38:05.785Z,9.80
2019-02-19T05:39:05.791Z,9.88
2019-02-19T05:40:05.777Z,9.85
2019-02-19T05:41:05.768Z,9.80
2019-02-19T05:42:05.761Z,9.74
2019-02-19T05:43:05.754Z,9.78
2019-02-19T05:44:05.750Z,9.78
2019-02-19T05:45:05.731Z,9.80
2019-02-19T05:46:05.728Z,9.78
2019-02-19T05:47:05.717Z,9.75
2019-02-19T05:48:05.705Z,9.73
2019-02-19T05:49:05.701Z,9.75
2019-02-19T05:50:05.685Z,9.74
2019-02-19T05:51:05.676Z,9.74
2019-02-19T05:52:05.674Z,9.77
2019-02-19T05:53:05.664Z,9.73
2019-02-19T05:54:05.658Z,9.74
2019-02-19T05:55:05.648Z,9.74
2019-02-19T05:56:05.688Z,9.74
2019-02-19T05:57:05.627Z,9.67
2019-02-19T05:58:05.619Z,9.68
2019-02-19T05:59:05.625Z,9.65
2019-02-19T06:00:05.608Z,9.68
2019-02-19T06:01:05.601Z,9.62
2019-02-19T06:02:05.586Z,9.70
2019-02-19T06:03:05.579Z,9.65
2019-02-19T06:04:05.575Z,9.59
2019-02-19T06:05:05.926Z,9.55
2019-02-19T06:06:05.553Z,9.63
2019-02-19T06:07:05.546Z,9.58
2019-02-19T06:08:05.532Z,9.53
2019-02-19T06:09:05.527Z,9.53
2019-02-19T06:10:05.516Z,9.55
2019-02-19T06:11:05.508Z,9.49
2019-02-19T06:12:05.504Z,9.50
2019-02-19T06:13:05.495Z,9.53
2019-02-19T06:14:05.489Z,9.53
2019-02-19T06:15:05.482Z,9.56
2019-02-19T06:16:05.468Z,9.45
2019-02-19T06:17:05.460Z,9.48
2019-02-19T06:18:05.455Z,9.53
2019-02-19T06:19:05.448Z,9.52
2019-02-19T06:20:05.433Z,9.45
2019-02-19T06:21:05.427Z,9.55
2019-02-19T06:22:05.412Z,9.53
2019-02-19T06:23:05.406Z,9.58
2019-02-19T06:24:05.403Z,9.50
2019-02-19T06:25:05.401Z,9.53
2019-02-19T06:26:05.385Z,9.56
2019-02-19T06:27:05.375Z,9.52
2019-02-19T06:28:05.364Z,9.49
2019-02-19T06:29:05.352Z,9.56
2019-02-19T06:30:05.346Z,9.62
2019-02-19T06:31:05.338Z,9.62
2019-02-19T06:32:05.335Z,9.60
2019-02-19T06:33:05.323Z,9.63
2019-02-19T06:34:05.312Z,9.59
2019-02-19T06:35:05.305Z,9.58
2019-02-19T06:36:05.305Z,9.56
2019-02-19T06:37:05.292Z,9.60
2019-02-19T06:38:05.282Z,9.56
2019-02-19T06:39:05.271Z,9.59
2019-02-19T06:40:05.260Z,9.56
2019-02-19T06:41:05.252Z,9.63
2019-02-19T06:42:05.243Z,9.60
2019-02-19T06:43:05.235Z,9.53
2019-02-19T06:44:05.230Z,9.58
2019-02-19T06:45:05.222Z,9.59
2019-02-19T06:46:05.211Z,9.59
2019-02-19T06:47:07.094Z,9.55
2019-02-19T06:48:05.189Z,9.49
2019-02-19T06:49:05.180Z,9.55
2019-02-19T06:50:05.174Z,9.45
2019-02-19T06:51:05.166Z,9.48
2019-02-19T06:52:05.159Z,9.49
2019-02-19T06:53:05.152Z,9.52
2019-02-19T06:54:05.138Z,9.58
2019-02-19T06:55:05.128Z,9.49
2019-02-19T06:56:05.127Z,9.50
2019-02-19T06:57:05.117Z,9.56
2019-02-19T06:58:05.109Z,9.53
2019-02-19T06:59:05.100Z,9.48
2019-02-19T07:00:05.087Z,9.58
2019-02-19T07:01:05.077Z,9.56
2019-02-19T07:02:05.065Z,9.50
2019-02-19T07:03:05.057Z,9.49
2019-02-19T07:04:05.052Z,9.49
2019-02-19T07:05:05.044Z,9.52
2019-02-19T07:06:05.031Z,9.52
2019-02-19T07:07:05.024Z,9.55
2019-02-19T07:08:05.020Z,9.50
2019-02-19T07:09:05.010Z,9.56
2019-02-19T07:10:05.003Z,9.60
2019-02-19T07:11:04.995Z,9.56
2019-02-19T07:12:04.983Z,9.59
2019-02-19T07:13:04.973Z,9.65
2019-02-19T07:14:04.965Z,9.59
2019-02-19T07:15:04.955Z,9.67
2019-02-19T07:16:04.955Z,9.65
2019-02-19T07:17:04.942Z,9.62
2019-02-19T07:18:04.931Z,9.67
2019-02-19T07:19:04.924Z,9.67
2019-02-19T07:20:04.910Z,9.63
2019-02-19T07:21:04.900Z,9.60
2019-02-19T07:22:04.898Z,9.67
2019-02-19T07:23:04.889Z,9.65
2019-02-19T07:24:04.895Z,9.62
2019-02-19T07:25:04.866Z,9.68
2019-02-19T07:26:04.861Z,9.62
2019-02-19T07:27:04.854Z,9.65
2019-02-19T07:28:04.849Z,9.70
2019-02-19T07:29:04.842Z,9.63
2019-02-19T07:30:04.830Z,9.68
2019-02-19T07:31:04.822Z,9.62
2019-02-19T07:32:04.809Z,9.70
2019-02-19T07:33:04.802Z,9.60
2019-02-19T07:34:04.789Z,9.68
2019-02-19T07:35:04.780Z,9.63
2019-02-19T07:36:04.778Z,9.65
2019-02-19T07:37:04.769Z,9.67
2019-02-19T07:38:04.755Z,9.59
2019-02-19T07:39:04.749Z,9.60
2019-02-19T07:40:04.743Z,9.63
2019-02-19T07:41:04.736Z,9.55
2019-02-19T07:42:04.730Z,9.63
2019-02-19T07:43:04.720Z,9.67
2019-02-19T07:44:04.709Z,9.71
2019-02-19T07:45:04.701Z,9.70
2019-02-19T07:46:04.695Z,9.77
2019-02-19T07:47:04.691Z,9.89
2019-02-19T07:48:04.674Z,9.85
2019-02-19T07:49:04.665Z,9.92
2019-02-19T07:50:04.656Z,9.93
2019-02-19T07:51:04.648Z,9.93
2019-02-19T07:52:04.644Z,9.89
2019-02-19T07:53:04.634Z,9.95
2019-02-19T07:54:04.621Z,9.91
2019-02-19T07:55:04.613Z,10.10
2019-02-19T07:56:04.615Z,10.10
2019-02-19T07:57:04.601Z,10.10
2019-02-19T07:58:04.595Z,10.10
2019-02-19T07:59:04.586Z,10.09
2019-02-19T08:00:04.577Z,10.01
2019-02-19T08:01:04.567Z,9.98
2019-02-19T08:02:04.559Z,10.04
2019-02-19T08:03:05.046Z,10.07
2019-02-19T08:04:04.548Z,10.10
2019-02-19T08:05:04.537Z,10.13
2019-02-19T08:06:04.528Z,10.17
2019-02-19T08:07:04.522Z,10.22
2019-02-19T08:08:04.506Z,10.18
2019-02-19T08:09:04.501Z,10.18
2019-02-19T08:10:04.499Z,10.11
2019-02-19T08:11:04.495Z,10.04
2019-02-19T08:12:04.477Z,10.14
2019-02-19T08:13:04.475Z,10.20
2019-02-19T08:14:04.462Z,10.14
2019-02-19T08:15:04.461Z,10.24
2019-02-19T08:16:04.453Z,10.32
2019-02-19T08:17:04.444Z,10.32
2019-02-19T08:18:04.435Z,10.38
2019-02-19T08:19:04.426Z,10.34
2019-02-19T08:20:04.415Z,10.24
2019-02-19T08:21:04.407Z,10.20
2019-02-19T08:22:04.395Z,10.24
2019-02-19T08:23:04.387Z,10.25
2019-02-19T08:24:04.384Z,10.26
2019-02-19T08:25:04.377Z,10.43
2019-02-19T08:26:04.363Z,10.70
2019-02-19T08:27:04.356Z,11.19
2019-02-19T08:28:04.354Z,11.60
2019-02-19T08:29:13.448Z,12.05
2019-02-19T08:30:04.338Z,12.56
2019-02-19T08:31:04.333Z,13.07
2019-02-19T08:32:04.320Z,13.81
2019-02-19T08:33:04.317Z,14.72
2019-02-19T08:34:04.305Z,15.53
2019-02-19T08:35:04.305Z,15.99
2019-02-19T08:36:04.298Z,16.45
2019-02-19T08:37:04.292Z,16.44
2019-02-19T08:38:04.284Z,16.72
2019-02-19T08:39:04.283Z,16.81
2019-02-19T08:40:04.274Z,17.25
2019-02-19T08:41:04.282Z,17.54
2019-02-19T08:42:04.268Z,17.89
2019-02-19T08:43:04.266Z,18.42
2019-02-19T08:44:04.256Z,18.49
2019-02-19T08:45:04.254Z,18.36
2019-02-19T08:46:04.255Z,18.02
2019-02-19T08:47:04.256Z,18.38
2019-02-19T08:48:04.257Z,18.79
2019-02-19T08:49:04.253Z,18.99
2019-02-19T08:50:04.250Z,19.46
2019-02-19T08:51:04.255Z,19.83
2019-02-19T08:52:04.246Z,20.01
2019-02-19T08:53:04.245Z,20.53
2019-02-19T08:54:04.249Z,20.34
2019-02-19T08:55:04.248Z,20.13
2019-02-19T08:56:04.256Z,20.19
2019-02-19T08:57:04.256Z,19.62
2019-02-19T08:58:04.250Z,19.76
2019-02-19T08:59:04.255Z,20.34
2019-02-19T09:00:04.260Z,20.44
2019-02-19T09:01:04.261Z,20.78
2019-02-19T09:02:04.262Z,20.96
2019-02-19T09:03:04.272Z,21.34
2019-02-19T09:04:04.260Z,21.64
2019-02-19T09:05:04.262Z,22.15
2019-02-19T09:06:04.266Z,21.58
2019-02-19T09:07:04.268Z,21.85
2019-02-19T09:08:04.277Z,21.22
2019-02-19T09:09:04.297Z,21.64
2019-02-19T09:10:04.284Z,22.09
2019-02-19T09:11:04.289Z,22.63
2019-02-19T09:12:04.286Z,22.59
2019-02-19T09:13:04.289Z,22.69
2019-02-19T09:14:04.298Z,22.36
2019-02-19T09:15:04.302Z,22.27
2019-02-19T09:16:04.304Z,22.63
2019-02-19T09:17:04.305Z,22.66
2019-02-19T09:18:04.315Z,22.49
2019-02-19T09:19:04.312Z,22.69
2019-02-19T09:20:04.326Z,22.88
2019-02-19T09:21:04.325Z,23.23
2019-02-19T09:22:04.331Z,23.37
2019-02-19T09:23:04.335Z,22.21
2019-02-19T09:24:09.417Z,22.15
2019-02-19T09:25:04.340Z,21.73
2019-02-19T09:26:04.346Z,21.86
2019-02-19T09:27:04.351Z,21.91
2019-02-19T09:28:04.361Z,22.67
2019-02-19T09:29:04.365Z,21.46
2019-02-19T09:30:04.367Z,21.36
2019-02-19T09:31:04.377Z,21.63
2019-02-19T09:32:04.382Z,22.36
2019-02-19T09:33:04.384Z,21.38
2019-02-19T09:34:04.390Z,22.24
2019-02-19T09:35:04.398Z,23.09
2019-02-19T09:36:04.402Z,23.39
2019-02-19T09:37:04.399Z,22.82
2019-02-19T09:38:04.405Z,22.78
2019-02-19T09:39:04.410Z,22.24
2019-02-19T09:40:04.421Z,21.37
2019-02-19T09:41:04.425Z,20.00
2019-02-19T09:42:04.431Z,19.45
2019-02-19T09:43:04.437Z,20.44
2019-02-19T09:44:04.439Z,20.61
2019-02-19T09:45:04.442Z,19.98
2019-02-19T09:46:04.451Z,21.09
2019-02-19T09:47:04.458Z,21.83
2019-02-19T09:48:04.457Z,20.68
2019-02-19T09:49:04.462Z,19.83
2019-02-19T09:50:04.463Z,19.53
2019-02-19T09:51:04.467Z,19.68
2019-02-19T09:52:04.484Z,21.03
2019-02-19T09:53:04.481Z,21.59
2019-02-19T09:54:04.512Z,21.79
2019-02-19T09:55:04.491Z,21.45
2019-02-19T09:56:04.494Z,21.15
2019-02-19T09:57:04.494Z,20.69
2019-02-19T09:58:04.495Z,21.52
2019-02-19T09:59:04.499Z,22.38
2019-02-19T10:00:04.510Z,22.61
2019-02-19T10:01:04.511Z,21.83
2019-02-19T10:02:04.510Z,21.28
2019-02-19T10:03:04.515Z,20.61
2019-02-19T10:04:04.524Z,20.76
2019-02-19T10:05:04.527Z,20.76
2019-02-19T10:06:04.533Z,20.46
2019-02-19T10:07:04.538Z,20.27
2019-02-19T10:08:04.537Z,20.78
2019-02-19T10:09:04.540Z,20.44
2019-02-19T10:10:04.545Z,19.92
2019-02-19T10:11:04.546Z,20.34
2019-02-19T10:12:04.554Z,21.30
2019-02-19T10:13:04.556Z,21.63
2019-02-19T10:14:04.559Z,21.13
2019-02-19T10:15:04.560Z,20.46
2019-02-19T10:16:04.559Z,21.42
2019-02-19T10:17:04.560Z,22.04
2019-02-19T10:18:10.320Z,22.64
2019-02-19T10:19:04.572Z,23.45
2019-02-19T10:20:04.569Z,22.97
2019-02-19T10:21:04.574Z,22.74
2019-02-19T10:22:04.578Z,22.29
2019-02-19T10:23:04.584Z,21.96
2019-02-19T10:24:04.591Z,22.79
2019-02-19T10:25:04.594Z,23.44
2019-02-19T10:26:04.596Z,24.16
2019-02-19T10:27:04.602Z,24.99
2019-02-19T10:28:04.601Z,25.71
2019-02-19T10:29:04.605Z,24.06
2019-02-19T10:30:04.611Z,22.70
2019-02-19T10:31:04.610Z,23.53
2019-02-19T10:32:05.975Z,24.33
2019-02-19T10:33:04.624Z,25.04
2019-02-19T10:34:04.625Z,25.49
2019-02-19T10:35:04.632Z,25.98
2019-02-19T10:36:04.640Z,26.23
2019-02-19T10:37:04.643Z,24.46
2019-02-19T10:38:04.652Z,24.92
2019-02-19T10:39:04.657Z,24.71
2019-02-19T10:40:04.658Z,24.48
2019-02-19T10:41:04.664Z,25.30
2019-02-19T10:42:04.671Z,25.39
2019-02-19T10:43:04.676Z,25.45
2019-02-19T10:44:04.687Z,25.66
2019-02-19T10:45:04.691Z,25.61
2019-02-19T10:46:04.696Z,25.86
2019-02-19T10:47:04.704Z,26.21
2019-02-19T10:48:04.717Z,26.08
2019-02-19T10:49:04.711Z,24.56
2019-02-19T10:50:04.721Z,23.29
2019-02-19T10:51:04.730Z,22.33
2019-02-19T10:52:04.731Z,21.90
2019-02-19T10:53:04.743Z,20.75
2019-02-19T10:54:04.745Z,19.70
2019-02-19T10:55:04.752Z,19.55
2019-02-19T10:56:04.765Z,19.43
2019-02-19T10:57:04.768Z,19.24
2019-02-19T10:58:04.771Z,20.23
2019-02-19T10:59:04.776Z,20.13
2019-02-19T11:00:04.777Z,19.65
2019-02-19T11:01:04.779Z,19.67
2019-02-19T11:02:04.789Z,20.38
2019-02-19T11:03:04.794Z,19.89
2019-02-19T11:04:04.799Z,19.38
2019-02-19T11:05:04.803Z,19.49
2019-02-19T11:06:04.805Z,19.55
2019-02-19T11:07:04.809Z,19.30
2019-02-19T11:08:04.814Z,19.27
2019-02-19T11:09:04.818Z,19.01
2019-02-19T11:10:04.817Z,20.02
2019-02-19T11:11:04.824Z,20.40
2019-02-19T11:12:04.818Z,20.05
2019-02-19T11:13:04.821Z,19.55
2019-02-19T11:14:04.824Z,20.56
2019-02-19T11:15:04.826Z,21.28
2019-02-19T11:16:04.833Z,21.06
2019-02-19T11:17:04.836Z,20.53
2019-02-19T11:18:04.840Z,20.12
2019-02-19T11:19:04.842Z,19.71
2019-02-19T11:20:04.846Z,19.32
2019-02-19T11:21:04.845Z,19.09
2019-02-19T11:22:04.851Z,18.59
2019-02-19T11:23:04.856Z,18.69
2019-02-19T11:24:04.851Z,18.53
2019-02-19T11:25:04.854Z,18.29
2019-02-19T11:26:04.851Z,18.29
2019-02-19T11:27:04.853Z,18.05
2019-02-19T11:28:04.860Z,18.69
2019-02-19T11:29:04.860Z,18.93
2019-02-19T11:30:04.861Z,18.86
2019-02-19T11:31:04.864Z,18.57
2019-02-19T11:32:04.858Z,18.41
2019-02-19T11:33:04.861Z,18.29
2019-02-19T11:34:04.863Z,18.09
2019-02-19T11:35:04.871Z,17.83
2019-02-19T11:36:04.871Z,17.58
2019-02-19T11:37:04.870Z,17.35
2019-02-19T11:38:04.866Z,17.47
2019-02-19T11:39:04.869Z,17.21
2019-02-19T11:40:04.873Z,17.42
2019-02-19T11:41:04.871Z,17.42
2019-02-19T11:42:04.947Z,17.07
2019-02-19T11:43:04.870Z,17.06
2019-02-19T11:44:04.865Z,16.84
2019-02-19T11:45:04.864Z,16.78
2019-02-19T11:46:04.864Z,16.52
2019-02-19T11:47:04.863Z,16.37
2019-02-19T11:48:04.868Z,16.33
2019-02-19T11:49:04.867Z,16.33
2019-02-19T11:50:04.868Z,16.36
2019-02-19T11:51:04.871Z,16.37
2019-02-19T11:52:04.862Z,16.34
2019-02-19T11:53:04.880Z,16.41
2019-02-19T11:54:04.864Z,16.59
2019-02-19T11:55:04.863Z,16.67
2019-02-19T11:56:04.858Z,16.77
2019-02-19T11:57:04.858Z,16.62
2019-02-19T11:58:04.851Z,16.37
2019-02-19T11:59:04.850Z,16.11
2019-02-19T12:00:04.854Z,16.34
2019-02-19T12:01:04.859Z,16.42
2019-02-19T12:02:04.855Z,16.42
2019-02-19T12:03:04.849Z,16.42
2019-02-19T12:04:04.847Z,16.37
2019-02-19T12:05:06.876Z,16.29
2019-02-19T12:06:04.847Z,16.22
2019-02-19T12:07:04.841Z,16.10
2019-02-19T12:08:04.844Z,15.93
2019-02-19T12:09:04.848Z,15.85
2019-02-19T12:10:04.834Z,15.81
2019-02-19T12:11:04.834Z,15.73
2019-02-19T12:12:04.835Z,15.67
2019-02-19T12:13:04.832Z,15.73
2019-02-19T12:14:04.828Z,15.73
2019-02-19T12:15:04.826Z,15.77
2019-02-19T12:16:04.821Z,15.80
2019-02-19T12:17:04.816Z,15.92
2019-02-19T12:18:04.817Z,15.68
2019-02-19T12:19:04.813Z,15.73
2019-02-19T12:20:04.814Z,15.60
2019-02-19T12:21:04.811Z,15.55
2019-02-19T12:22:04.812Z,15.67
2019-02-19T12:23:04.810Z,15.73
2019-02-19T12:24:04.802Z,15.66
2019-02-19T12:25:04.796Z,15.55
2019-02-19T12:26:04.798Z,15.56
2019-02-19T12:27:07.366Z,15.48
2019-02-19T12:28:04.799Z,15.64
2019-02-19T12:29:04.790Z,15.77
2019-02-19T12:30:04.784Z,15.77
2019-02-19T12:31:04.819Z,15.85
2019-02-19T12:32:04.781Z,15.73
2019-02-19T12:33:04.775Z,15.73
2019-02-19T12:34:04.774Z,15.73
2019-02-19T12:35:04.771Z,15.66
2019-02-19T12:36:04.764Z,15.66
2019-02-19T12:37:04.760Z,15.71
2019-02-19T12:38:04.760Z,15.74
2019-02-19T12:39:04.758Z,15.96
2019-02-19T12:40:04.762Z,15.93
2019-02-19T12:41:04.755Z,16.04
2019-02-19T12:42:04.748Z,16.11
2019-02-19T12:43:04.750Z,16.06
2019-02-19T12:44:04.747Z,15.98
2019-02-19T12:45:04.743Z,16.11
2019-02-19T12:46:04.742Z,16.22
2019-02-19T12:47:04.735Z,16.16
2019-02-19T12:48:04.730Z,16.06
2019-02-19T12:49:04.729Z,16.01
2019-02-19T12:50:04.721Z,16.04
2019-02-19T12:51:04.720Z,16.11
2019-02-19T12:52:04.723Z,16.17
2019-02-19T12:53:04.720Z,16.27
2019-02-19T12:54:04.718Z,16.32
2019-02-19T12:55:04.715Z,16.34
2019-02-19T12:56:04.708Z,16.37
2019-02-19T12:57:04.706Z,16.55
2019-02-19T12:58:04.707Z,16.54